createdAt,value
2023-03-28T00:00:43.646Z,8.02
2023-03-28T00:05:49.049Z,2.63
2023-03-28T00:10:50.098Z,8.65
2023-03-28T00:15:52.896Z,7.30
2023-03-28T00:20:55.171Z,6.93
2023-03-28T00:25:56.322Z,6.72
2023-03-28T00:31:03.759Z,11.13
2023-03-28T00:36:06.726Z,5.57
2023-03-28T00:41:09.856Z,11.13
2023-03-28T00:46:16.914Z,7.20
2023-03-28T00:51:21.942Z,5.90
2023-03-28T00:56:27.030Z,13.23
2023-03-28T01:01:28.383Z,6.45
2023-03-28T01:06:33.963Z,7.97
2023-03-28T01:11:39.348Z,5.57
2023-03-28T01:16:47.962Z,5.53
2023-03-28T01:22:07.905Z,7.10
2023-03-28T01:27:16.205Z,8.85
2023-03-28T01:32:44.989Z,7.28
2023-03-28T01:37:58.684Z,6.13
2023-03-28T01:43:14.306Z,8.50
2023-03-28T01:48:24.491Z,4.57
2023-03-28T01:53:31.825Z,6.40
2023-03-28T01:58:41.845Z,10.02
2023-03-28T02:03:51.361Z,8.85
2023-03-28T02:09:24.905Z,9.45
2023-03-28T02:14:38.281Z,5.95
2023-03-28T02:20:14.598Z,7.57
2023-03-28T02:25:39.236Z,4.25
2023-03-28T02:31:02.719Z,7.18
2023-03-28T02:36:14.971Z,11.38
2023-03-28T02:41:31.994Z,17.92
2023-03-28T02:46:42.891Z,8.20
2023-03-28T02:51:50.785Z,8.63
2023-03-28T02:57:01.901Z,5.45
2023-03-28T03:02:11.569Z,12.13
2023-03-28T03:07:13.814Z,10.32
2023-03-28T03:12:15.892Z,10.98
2023-03-28T03:17:17.090Z,13.80
2023-03-28T03:22:21.214Z,15.93
2023-03-28T03:27:26.478Z,12.70
2023-03-28T03:32:27.589Z,12.68
2023-03-28T03:37:36.396Z,7.78
2023-03-28T03:42:38.517Z,7.40
2023-03-28T03:47:39.253Z,3.58
2023-03-28T03:52:39.990Z,2.22
2023-03-28T03:57:42.146Z,8.75
2023-03-28T04:02:43.008Z,6.18
2023-03-28T04:07:43.785Z,6.60
2023-03-28T04:12:56.238Z,2.63
2023-03-28T04:17:57.252Z,4.70
2023-03-28T04:23:01.264Z,5.43
2023-03-28T04:28:05.379Z,4.00
2023-03-28T04:33:12.822Z,11.13
2023-03-28T04:38:20.609Z,6.68
2023-03-28T04:43:29.116Z,8.02
2023-03-28T04:48:31.203Z,11.77
2023-03-28T04:53:32.083Z,4.53
2023-03-28T04:59:06.526Z,15.10
2023-03-28T05:04:07.650Z,12.20
2023-03-28T05:09:08.767Z,6.28
2023-03-28T05:14:11.030Z,9.82
2023-03-28T05:19:20.841Z,5.32
2023-03-28T05:24:31.781Z,9.50
2023-03-28T05:29:33.862Z,5.53
2023-03-28T05:34:36.121Z,9.20
2023-03-28T05:39:38.401Z,6.00
2023-03-28T05:44:42.449Z,5.90
2023-03-28T05:50:01.973Z,5.55
2023-03-28T05:55:03.645Z,5.78
2023-03-28T06:00:14.592Z,4.32
2023-03-28T06:05:23.965Z,9.65
2023-03-28T06:10:25.848Z,8.40
2023-03-28T06:16:03.017Z,5.45
2023-03-28T06:21:09.280Z,2.83
2023-03-28T06:26:10.068Z,7.13
2023-03-28T06:31:16.274Z,4.82
2023-03-28T06:36:22.524Z,9.73
2023-03-28T06:41:24.333Z,4.70
2023-03-28T06:46:26.656Z,3.85
2023-03-28T06:51:27.392Z,5.55
2023-03-28T06:56:29.349Z,5.25
2023-03-28T07:01:33.755Z,3.50
2023-03-28T07:06:41.397Z,4.15
2023-03-28T07:11:42.720Z,9.57
2023-03-28T07:16:44.793Z,3.83
2023-03-28T07:21:45.810Z,2.65
2023-03-28T07:26:47.417Z,3.28
2023-03-28T07:31:49.695Z,4.00
2023-03-28T07:36:50.516Z,4.47
2023-03-28T07:42:11.359Z,4.97
2023-03-28T07:47:13.544Z,4.90
2023-03-28T07:52:14.905Z,3.58
2023-03-28T07:57:15.940Z,3.10
2023-03-28T08:02:31.496Z,2.97
2023-03-28T08:07:34.069Z,4.93
2023-03-28T08:12:35.743Z,3.25
2023-03-28T08:17:38.149Z,5.15
2023-03-28T08:22:41.137Z,3.67
2023-03-28T08:28:03.172Z,5.18
2023-03-28T08:33:05.884Z,2.20
2023-03-28T08:38:09.738Z,5.07
2023-03-28T08:43:34.822Z,6.22
2023-03-28T08:48:42.637Z,4.15
2023-03-28T08:53:48.793Z,4.53
2023-03-28T08:58:58.278Z,2.78
2023-03-28T09:04:00.652Z,2.45
2023-03-28T09:09:21.102Z,5.55
2023-03-28T09:14:52.650Z,6.80
2023-03-28T09:20:12.407Z,3.70
2023-03-28T09:25:38.281Z,2.42
2023-03-28T09:30:45.183Z,5.70
2023-03-28T09:35:51.843Z,2.97
2023-03-28T09:40:56.575Z,4.45
2023-03-28T09:46:18.732Z,2.50
2023-03-28T09:51:43.773Z,4.30
2023-03-28T09:56:46.265Z,1.90
2023-03-28T10:01:58.681Z,5.75
2023-03-28T10:07:31.132Z,1.45
2023-03-28T10:12:49.968Z,1.83
2023-03-28T10:17:51.450Z,0.95
2023-03-28T10:22:59.463Z,1.60
2023-03-28T10:28:02.195Z,3.53
2023-03-28T10:33:21.976Z,1.10
2023-03-28T10:38:45.868Z,1.65
2023-03-28T10:44:20.564Z,2.47
2023-03-28T10:49:28.724Z,2.13
2023-03-28T10:54:52.827Z,4.22
2023-03-28T11:00:16.785Z,0.63
2023-03-28T11:05:34.832Z,4.22
2023-03-28T11:10:45.411Z,2.78
2023-03-28T11:16:15.069Z,1.50
2023-03-28T11:21:44.857Z,4.60
2023-03-28T11:26:55.743Z,1.15
2023-03-28T11:32:10.538Z,4.50
2023-03-28T11:37:19.525Z,1.55
2023-03-28T11:42:28.510Z,1.98
2023-03-28T11:47:33.811Z,1.27
2023-03-28T11:52:47.481Z,1.90
2023-03-28T11:57:58.027Z,3.85
2023-03-28T12:03:10.022Z,2.45
2023-03-28T12:08:18.586Z,3.90
2023-03-28T12:13:31.692Z,5.97
2023-03-28T12:18:42.684Z,2.80
2023-03-28T12:24:04.214Z,4.10
2023-03-28T12:29:22.734Z,1.10
2023-03-28T12:34:31.917Z,2.17
2023-03-28T12:39:56.521Z,1.27
2023-03-28T12:45:09.679Z,3.25
2023-03-28T12:50:17.077Z,2.03
2023-03-28T12:55:43.112Z,8.20
2023-03-28T13:00:57.009Z,2.10
2023-03-28T13:06:15.588Z,15.25
2023-03-28T13:11:26.295Z,4.88
2023-03-28T13:16:46.191Z,4.32
2023-03-28T13:21:51.101Z,3.08
2023-03-28T13:26:56.081Z,3.35
2023-03-28T13:32:06.750Z,2.33
2023-03-28T13:37:22.842Z,3.10
2023-03-28T13:42:29.211Z,5.93
2023-03-28T13:47:36.056Z,8.40
2023-03-28T13:52:39.361Z,4.53
2023-03-28T13:57:40.076Z,4.38
2023-03-28T14:02:46.080Z,6.80
2023-03-28T14:07:47.073Z,5.32
2023-03-28T14:12:48.132Z,6.93
2023-03-28T14:17:51.715Z,5.57
2023-03-28T14:23:00.480Z,11.07
2023-03-28T14:28:09.542Z,4.25
2023-03-28T14:33:21.888Z,3.88
2023-03-28T14:38:30.019Z,5.15
2023-03-28T14:43:31.745Z,9.18
2023-03-28T14:48:34.707Z,3.67
2023-03-28T14:53:42.543Z,4.85
2023-03-28T14:58:46.905Z,12.00
2023-03-28T15:03:52.498Z,4.30
2023-03-28T15:08:55.894Z,4.65
2023-03-28T15:14:02.320Z,8.65
2023-03-28T15:19:07.714Z,9.18
2023-03-28T15:24:12.934Z,6.80
2023-03-28T15:29:17.345Z,4.60
2023-03-28T15:34:24.261Z,2.95
2023-03-28T15:39:29.743Z,7.57
2023-03-28T15:44:33.183Z,3.65
2023-03-28T15:49:38.197Z,5.60
2023-03-28T15:54:44.157Z,5.93
2023-03-28T15:59:48.778Z,7.78
2023-03-28T16:05:02.289Z,5.38
2023-03-28T16:10:03.627Z,2.85
2023-03-28T16:15:11.261Z,4.10
2023-03-28T16:20:25.435Z,5.78
2023-03-28T16:25:27.842Z,4.82
2023-03-28T16:30:32.449Z,5.53
2023-03-28T16:35:35.121Z,5.05
2023-03-28T16:40:35.866Z,9.02
2023-03-28T16:45:38.106Z,3.03
2023-03-28T16:50:40.251Z,5.25
2023-03-28T16:55:40.930Z,14.93
2023-03-28T17:00:42.207Z,13.93
2023-03-28T17:05:44.328Z,11.43
2023-03-28T17:10:45.402Z,7.82
2023-03-28T17:15:46.147Z,6.88
2023-03-28T17:20:49.142Z,6.95
2023-03-28T17:26:01.852Z,7.57
2023-03-28T17:31:07.007Z,9.95
2023-03-28T17:36:21.962Z,11.90
2023-03-28T17:41:24.583Z,6.70
2023-03-28T17:46:26.196Z,8.73
2023-03-28T17:51:28.421Z,6.50
2023-03-28T17:56:29.180Z,6.57
2023-03-28T18:01:30.057Z,16.90
2023-03-28T18:06:33.295Z,8.05
2023-03-28T18:11:34.219Z,13.00
2023-03-28T18:16:35.511Z,8.80
2023-03-28T18:21:38.133Z,8.57
2023-03-28T18:26:38.793Z,7.53
2023-03-28T18:31:40.545Z,8.85
2023-03-28T18:36:43.894Z,10.05
2023-03-28T18:41:44.804Z,9.23
2023-03-28T18:46:47.058Z,8.63
2023-03-28T18:51:49.393Z,8.07
2023-03-28T18:56:50.296Z,11.25
2023-03-28T19:01:51.870Z,7.18
2023-03-28T19:06:54.193Z,8.63
2023-03-28T19:11:55.145Z,10.10
2023-03-28T19:16:55.965Z,9.48
2023-03-28T19:21:58.092Z,12.00
2023-03-28T19:26:59.720Z,14.10
2023-03-28T19:32:01.192Z,12.65
2023-03-28T19:37:03.339Z,9.50
2023-03-28T19:42:04.810Z,9.15
2023-03-28T19:47:05.798Z,8.10
2023-03-28T19:52:09.977Z,8.63
2023-03-28T19:57:11.999Z,17.33
2023-03-28T20:02:12.791Z,13.65
2023-03-28T20:07:14.867Z,12.30
2023-03-28T20:12:16.031Z,12.05
2023-03-28T20:17:16.789Z,11.75
2023-03-28T20:22:20.138Z,15.95
2023-03-28T20:27:20.923Z,10.68
2023-03-28T20:32:21.628Z,18.05
2023-03-28T20:37:24.128Z,17.95
2023-03-28T20:42:29.880Z,17.25
2023-03-28T20:47:30.736Z,16.95
2023-03-28T20:52:36.370Z,21.98
2023-03-28T20:57:41.322Z,24.23
2023-03-28T21:02:42.068Z,16.67
2023-03-28T21:07:44.213Z,18.85
2023-03-28T21:12:47.368Z,12.75
2023-03-28T21:17:49.575Z,25.70
2023-03-28T21:22:53.456Z,13.00
2023-03-28T21:27:54.178Z,19.67
2023-03-28T21:33:01.519Z,16.88
2023-03-28T21:38:06.218Z,15.30
2023-03-28T21:43:07.438Z,12.75
2023-03-28T21:48:08.199Z,19.17
2023-03-28T21:53:11.756Z,12.80
2023-03-28T21:58:12.597Z,15.15
2023-03-28T22:03:13.653Z,14.88
2023-03-28T22:08:15.704Z,14.80
2023-03-28T22:13:17.021Z,11.48
2023-03-28T22:18:17.737Z,13.10
2023-03-28T22:23:20.071Z,14.27
2023-03-28T22:28:24.616Z,20.00
2023-03-28T22:33:25.954Z,9.82
2023-03-28T22:38:28.695Z,9.07
2023-03-28T22:43:30.046Z,10.90
2023-03-28T22:48:31.425Z,15.50
2023-03-28T22:53:36.016Z,10.75
2023-03-28T22:58:37.048Z,11.70
2023-03-28T23:03:38.127Z,12.70
2023-03-28T23:08:40.166Z,12.55
2023-03-28T23:13:43.307Z,16.48
2023-03-28T23:18:44.352Z,15.13
2023-03-28T23:23:47.427Z,9.75
2023-03-28T23:28:48.229Z,12.15
2023-03-28T23:33:51.339Z,10.50
2023-03-28T23:38:53.469Z,11.77
2023-03-28T23:43:54.153Z,11.32
2023-03-28T23:48:54.843Z,15.13
2023-03-28T23:53:57.087Z,7.90
2023-03-28T23:58:57.784Z,10.20
